Time;durP1;ratioP1;P1;durP2;ratioP2;P2;SDS_P1;SDS_P2;PMS_P1;PMS_P2;Temp;Humidity;BMP_temperature;BMP_pressure;BME280_temperature;BME280_humidity;BME280_pressure;Samples;Min_cycle;Max_cycle;Signal;HPM_P1;HPM_P2
2023/10/04 00:00:15;;;;;;;16.15;5.75;;;25.30;54.50;;;;;;5057402;28;20033;-83
2023/10/04 00:02:49;;;;;;;20.48;5.72;;;25.30;54.50;;;;;;5065655;28;20028;-82
2023/10/04 00:05:24;;;;;;;14.55;5.20;;;25.30;54.70;;;;;;5073897;28;20380;-85
2023/10/04 00:07:53;;;;;;;18.92;4.82;;;25.40;54.90;;;;;;5072903;28;20032;-82
2023/10/04 00:10:24;;;;;;;18.02;4.80;;;25.50;54.80;;;;;;5073863;28;20036;-82
2023/10/04 00:12:53;;;;;;;14.15;4.95;;;25.50;54.60;;;;;;5074156;28;20112;-81
2023/10/04 00:15:22;;;;;;;18.88;5.65;;;25.70;53.80;;;;;;5073837;28;20028;-82
2023/10/04 00:17:52;;;;;;;22.55;5.85;;;25.70;53.60;;;;;;5072734;28;20157;-82
2023/10/04 00:20:21;;;;;;;15.02;5.15;;;25.70;54.10;;;;;;5053910;28;20029;-81
2023/10/04 00:22:50;;;;;;;22.25;6.00;;;25.80;54.30;;;;;;5061432;28;20356;-83
2023/10/04 00:25:22;;;;;;;19.15;4.82;;;26.00;53.60;;;;;;5073451;28;20035;-83
2023/10/04 00:27:52;;;;;;;20.58;5.47;;;26.10;51.80;;;;;;5072243;28;20107;-87
2023/10/04 00:30:19;;;;;;;17.20;4.95;;;26.30;52.10;;;;;;5053620;28;20035;-78
2023/10/04 00:32:47;;;;;;;21.42;4.22;;;26.30;52.20;;;;;;5053787;28;20028;-85
2023/10/04 00:35:19;;;;;;;8.50;2.90;;;26.50;50.30;;;;;;5056218;28;20021;-83
2023/10/04 00:37:56;;;;;;;16.27;4.20;;;26.70;46.00;;;;;;5057393;28;20515;-80
2023/10/04 00:40:33;;;;;;;12.27;4.35;;;26.90;47.30;;;;;;5067402;28;20044;-82
2023/10/04 00:43:13;;;;;;;7.38;2.45;;;27.10;48.40;;;;;;5072897;28;20463;-80
2023/10/04 00:45:44;;;;;;;7.82;3.03;;;27.30;44.40;;;;;;5064078;28;20037;-83
2023/10/04 00:48:13;;;;;;;8.82;3.00;;;27.30;43.10;;;;;;5075908;28;20024;-80
2023/10/04 00:50:41;;;;;;;10.98;2.40;;;27.30;43.80;;;;;;5070599;28;20417;-80
2023/10/04 00:53:29;;;;;;;7.18;2.60;;;27.30;43.30;;;;;;5073051;28;20342;-82
2023/10/04 00:55:57;;;;;;;7.15;2.75;;;27.40;43.60;;;;;;5067982;28;20035;-83
2023/10/04 00:58:26;;;;;;;9.05;3.05;;;27.50;43.80;;;;;;5069382;28;20029;-83
2023/10/04 01:00:54;;;;;;;9.55;2.67;;;27.60;43.30;;;;;;5072285;28;20026;-85
2023/10/04 01:03:38;;;;;;;8.93;2.70;;;27.80;43.20;;;;;;5071953;28;20382;-86
2023/10/04 01:06:05;;;;;;;10.82;2.70;;;28.00;42.10;;;;;;5065146;28;20170;-83
2023/10/04 01:08:34;;;;;;;8.20;3.30;;;28.00;41.50;;;;;;5068232;28;20029;-80
2023/10/04 01:11:02;;;;;;;6.80;2.58;;;28.00;41.80;;;;;;5064847;28;20037;-83
2023/10/04 01:13:30;;;;;;;8.43;2.42;;;28.00;41.60;;;;;;5046293;28;20429;-83
2023/10/04 01:15:59;;;;;;;8.25;2.63;;;27.90;41.70;;;;;;5070751;28;20024;-85
2023/10/04 01:18:30;;;;;;;10.05;2.90;;;27.80;41.50;;;;;;5068923;28;20063;-85
2023/10/04 01:20:57;;;;;;;12.57;2.88;;;27.70;41.40;;;;;;5063682;28;20321;-80
2023/10/04 01:23:25;;;;;;;7.93;2.85;;;27.70;41.70;;;;;;5066362;28;20036;-83
2023/10/04 01:25:53;;;;;;;8.30;3.03;;;27.50;42.00;;;;;;5071028;28;20043;-84
2023/10/04 01:28:30;;;;;;;7.50;2.80;;;27.50;42.50;;;;;;5067518;28;20039;-83
2023/10/04 01:31:02;;;;;;;6.57;2.80;;;27.60;42.60;;;;;;5058471;28;20020;-82
2023/10/04 01:33:30;;;;;;;12.43;3.55;;;27.60;43.20;;;;;;5069851;28;20020;-81
2023/10/04 01:35:58;;;;;;;6.72;2.95;;;27.70;42.20;;;;;;5068629;28;20029;-79
2023/10/04 01:38:27;;;;;;;10.70;2.97;;;27.70;42.70;;;;;;5052409;28;20041;-82
2023/10/04 01:40:56;;;;;;;9.90;3.15;;;27.70;41.60;;;;;;5059432;28;20104;-82
2023/10/04 01:43:27;;;;;;;13.43;2.88;;;27.80;41.40;;;;;;5071334;28;20028;-81
2023/10/04 01:45:58;;;;;;;7.10;2.42;;;27.80;42.10;;;;;;5084902;28;20047;-82
2023/10/04 01:48:30;;;;;;;8.20;2.78;;;27.90;41.50;;;;;;5092706;28;20022;-83
2023/10/04 01:50:59;;;;;;;11.52;2.95;;;28.10;40.60;;;;;;5074062;28;20040;-81
2023/10/04 01:53:27;;;;;;;8.45;2.55;;;28.10;40.40;;;;;;5075575;28;20039;-81
2023/10/04 01:55:55;;;;;;;7.78;3.05;;;28.10;40.30;;;;;;5074325;28;20805;-82
2023/10/04 01:58:25;;;;;;;7.15;2.60;;;28.20;40.70;;;;;;5076766;28;20031;-84
2023/10/04 02:00:54;;;;;;;9.57;2.45;;;28.30;40.90;;;;;;5063161;28;20033;-80
2023/10/04 02:03:22;;;;;;;9.45;3.15;;;28.30;41.00;;;;;;5058855;28;20404;-79
2023/10/04 02:05:50;;;;;;;9.75;3.15;;;28.30;40.70;;;;;;5067568;28;20028;-82
2023/10/04 02:08:17;;;;;;;11.35;3.15;;;28.20;40.70;;;;;;5077761;28;20408;-82
2023/10/04 02:10:45;;;;;;;7.15;2.83;;;28.20;41.20;;;;;;5067450;28;20017;-80
2023/10/04 02:13:16;;;;;;;9.95;3.00;;;28.10;41.00;;;;;;5061934;28;20391;-83
2023/10/04 02:15:48;;;;;;;7.18;2.90;;;28.00;41.10;;;;;;5076483;28;20497;-82
2023/10/04 02:18:16;;;;;;;9.23;2.70;;;27.90;41.30;;;;;;5081778;28;20037;-82
2023/10/04 02:20:48;;;;;;;6.10;2.70;;;27.90;41.20;;;;;;5077118;28;20024;-84
2023/10/04 02:23:19;;;;;;;6.68;2.85;;;27.80;41.60;;;;;;5074343;28;20024;-84
2023/10/04 02:25:48;;;;;;;5.20;2.60;;;27.70;41.80;;;;;;5081815;28;20032;-82
2023/10/04 02:28:22;;;;;;;7.75;3.15;;;27.70;41.70;;;;;;5083330;28;20386;-82
2023/10/04 02:30:53;;;;;;;9.48;3.03;;;27.70;41.40;;;;;;5080114;28;20041;-81
2023/10/04 02:33:22;;;;;;;6.57;2.85;;;27.70;41.10;;;;;;5074091;28;20036;-83
2023/10/04 02:35:52;;;;;;;9.15;3.20;;;27.70;41.50;;;;;;5069003;28;20029;-83
2023/10/04 02:38:23;;;;;;;7.22;3.20;;;27.80;41.70;;;;;;5075099;28;20557;-82
2023/10/04 02:40:55;;;;;;;9.18;2.95;;;27.80;41.90;;;;;;5072841;28;20032;-83
2023/10/04 02:43:25;;;;;;;8.38;2.90;;;27.80;41.80;;;;;;5074189;28;20076;-83
2023/10/04 02:45:53;;;;;;;7.57;2.25;;;27.70;41.50;;;;;;5074130;28;20031;-84
2023/10/04 02:48:24;;;;;;;9.20;2.90;;;27.70;41.50;;;;;;5077297;28;20371;-80
2023/10/04 02:50:52;;;;;;;9.57;3.00;;;27.60;41.40;;;;;;5071991;28;20021;-81
2023/10/04 02:53:20;;;;;;;8.52;2.95;;;27.50;41.50;;;;;;5074168;28;20390;-80
2023/10/04 02:55:50;;;;;;;7.45;2.63;;;27.50;41.00;;;;;;5070487;28;20021;-83
2023/10/04 02:58:17;;;;;;;7.75;2.70;;;27.40;41.60;;;;;;5076849;28;20025;-79
2023/10/04 03:00:45;;;;;;;7.28;2.58;;;27.30;41.90;;;;;;5064589;28;20028;-80
2023/10/04 03:03:19;;;;;;;9.02;2.95;;;27.30;42.10;;;;;;5071432;28;20119;-80
2023/10/04 03:05:47;;;;;;;6.82;2.53;;;27.30;42.00;;;;;;5058300;28;20032;-84
2023/10/04 03:08:17;;;;;;;14.15;2.90;;;27.30;42.00;;;;;;5058394;28;20029;-84
2023/10/04 03:10:50;;;;;;;5.35;2.42;;;27.30;42.10;;;;;;5067222;28;20033;-79
2023/10/04 03:13:27;;;;;;;7.97;2.50;;;27.30;42.60;;;;;;5062391;28;20033;-82
2023/10/04 03:15:55;;;;;;;6.60;2.75;;;27.20;42.50;;;;;;5063744;28;20020;-81
2023/10/04 03:18:25;;;;;;;10.82;2.78;;;27.20;42.00;;;;;;5069115;28;20028;-82
2023/10/04 03:23:33;;;;;;;10.43;2.88;;;27.20;43.00;;;;;;5060743;28;20028;-81
2023/10/04 03:26:02;;;;;;;7.63;2.65;;;27.20;43.00;;;;;;5068842;28;20036;-79
2023/10/04 03:28:33;;;;;;;6.60;2.50;;;27.20;42.80;;;;;;5066298;28;20115;-83
2023/10/04 03:31:04;;;;;;;6.22;2.53;;;27.30;43.00;;;;;;5060485;28;20067;-79
2023/10/04 03:33:32;;;;;;;10.05;2.63;;;27.30;42.40;;;;;;5061763;28;20021;-81
2023/10/04 03:36:04;;;;;;;8.85;2.33;;;27.40;42.40;;;;;;5079883;28;20065;-80
2023/10/04 03:38:35;;;;;;;8.20;2.40;;;27.50;42.30;;;;;;5065145;28;20048;-83
2023/10/04 03:41:06;;;;;;;6.55;2.72;;;27.50;42.40;;;;;;5061414;28;20062;-81
2023/10/04 03:43:36;;;;;;;9.52;2.63;;;27.60;42.20;;;;;;5067761;28;20031;-81
2023/10/04 03:46:19;;;;;;;7.07;2.60;;;27.50;41.60;;;;;;5055705;28;20021;-82
2023/10/04 03:48:48;;;;;;;6.55;2.53;;;27.30;42.40;;;;;;5065299;28;20432;-83
2023/10/04 03:51:20;;;;;;;9.13;2.75;;;27.30;41.90;;;;;;5066216;28;20372;-84
2023/10/04 03:53:49;;;;;;;7.32;2.38;;;27.20;41.80;;;;;;5068101;28;20039;-82
2023/10/04 03:56:18;;;;;;;9.63;2.75;;;27.10;41.70;;;;;;5073226;28;20345;-83
2023/10/04 03:58:46;;;;;;;7.90;2.60;;;27.10;41.90;;;;;;5070096;28;20028;-83
2023/10/04 04:01:14;;;;;;;9.20;2.67;;;27.10;42.00;;;;;;5072017;28;20028;-83
2023/10/04 04:03:44;;;;;;;6.10;2.47;;;27.10;42.20;;;;;;5073737;28;20387;-81
2023/10/04 04:06:11;;;;;;;8.38;2.40;;;27.00;42.50;;;;;;5074371;28;20090;-82
2023/10/04 04:08:39;;;;;;;10.13;2.30;;;27.00;42.20;;;;;;5073798;28;20028;-82
2023/10/04 04:11:07;;;;;;;7.70;2.20;;;26.90;42.70;;;;;;5073860;28;20028;-83
2023/10/04 04:13:35;;;;;;;6.55;2.40;;;26.80;42.60;;;;;;5072023;28;20021;-83
2023/10/04 04:16:09;;;;;;;8.10;2.47;;;26.80;42.40;;;;;;5058852;28;20021;-82
2023/10/04 04:18:39;;;;;;;10.57;2.75;;;26.80;42.60;;;;;;5065297;28;20039;-83
2023/10/04 04:21:07;;;;;;;5.63;2.20;;;26.80;43.10;;;;;;5058873;28;20028;-81
2023/10/04 04:23:35;;;;;;;7.85;2.10;;;26.80;41.80;;;;;;5067044;28;20025;-83
2023/10/04 04:26:05;;;;;;;5.53;2.20;;;26.80;42.60;;;;;;5069939;28;20064;-83
2023/10/04 04:28:36;;;;;;;7.00;2.53;;;26.80;42.10;;;;;;5070167;28;20502;-84
2023/10/04 04:31:20;;;;;;;6.97;2.63;;;26.80;42.30;;;;;;5061591;28;20121;-81
2023/10/04 04:33:47;;;;;;;5.65;2.05;;;26.80;42.60;;;;;;5065145;28;20024;-84
2023/10/04 04:36:27;;;;;;;6.22;2.13;;;26.80;42.30;;;;;;5060479;28;20353;-84
2023/10/04 04:38:55;;;;;;;7.20;2.28;;;26.80;42.90;;;;;;5070073;28;20081;-80
2023/10/04 04:41:25;;;;;;;7.18;2.72;;;26.70;42.30;;;;;;5058885;28;20029;-83
2023/10/04 04:43:53;;;;;;;5.88;2.28;;;26.70;42.70;;;;;;5063307;28;20429;-84
2023/10/04 04:46:22;;;;;;;6.00;1.85;;;26.60;42.70;;;;;;5069074;28;20033;-83
2023/10/04 04:48:54;;;;;;;6.93;2.40;;;26.60;42.70;;;;;;5082233;28;20037;-82
2023/10/04 04:51:22;;;;;;;7.35;2.25;;;26.50;43.00;;;;;;5080898;28;20020;-81
2023/10/04 04:53:50;;;;;;;5.88;2.20;;;26.50;43.00;;;;;;5075489;28;20386;-84
2023/10/04 04:56:18;;;;;;;5.53;2.38;;;26.40;42.90;;;;;;5072357;28;20501;-82
2023/10/04 04:58:47;;;;;;;11.23;2.50;;;26.40;42.90;;;;;;5075805;28;20024;-82
2023/10/04 05:01:16;;;;;;;7.55;2.13;;;26.40;43.00;;;;;;5071218;28;20540;-82
2023/10/04 05:03:45;;;;;;;7.03;1.98;;;26.30;43.10;;;;;;5070952;28;20028;-81
2023/10/04 05:06:16;;;;;;;10.82;2.20;;;26.30;43.30;;;;;;5070335;28;20079;-82
2023/10/04 05:08:44;;;;;;;7.03;2.35;;;26.30;43.90;;;;;;5066340;28;20016;-81
2023/10/04 05:11:11;;;;;;;10.45;2.08;;;26.20;44.20;;;;;;5063029;28;20032;-82
2023/10/04 05:13:39;;;;;;;9.48;2.25;;;26.20;45.10;;;;;;5071955;28;20356;-82
2023/10/04 05:16:08;;;;;;;11.88;4.13;;;26.10;47.10;;;;;;5067240;28;20467;-82
2023/10/04 05:18:35;;;;;;;17.77;4.85;;;26.00;51.00;;;;;;5059274;28;20029;-81
2023/10/04 05:21:04;;;;;;;17.80;5.13;;;25.80;53.10;;;;;;5063324;28;20056;-81
2023/10/04 05:23:32;;;;;;;24.83;5.85;;;25.60;54.60;;;;;;5070837;28;20036;-83
2023/10/04 05:26:03;;;;;;;21.90;5.95;;;25.40;57.60;;;;;;5066638;28;20025;-82
2023/10/04 05:28:33;;;;;;;21.60;5.93;;;25.20;57.80;;;;;;5051314;28;20338;-82
2023/10/04 05:31:01;;;;;;;18.35;5.32;;;25.00;58.00;;;;;;5072362;28;20107;-80
2023/10/04 05:33:28;;;;;;;19.95;5.63;;;24.80;60.60;;;;;;5052599;28;20487;-83
2023/10/04 05:35:56;;;;;;;24.30;5.82;;;24.60;61.70;;;;;;5052309;28;20036;-83
2023/10/04 05:38:24;;;;;;;23.83;6.13;;;24.50;62.60;;;;;;4950684;28;3465473;-81
2023/10/04 05:40:56;;;;;;;24.85;5.57;;;24.30;64.10;;;;;;5072523;28;20107;-83
2023/10/04 05:43:23;;;;;;;21.55;5.32;;;24.20;64.80;;;;;;5063424;28;20028;-81
2023/10/04 05:45:50;;;;;;;26.90;5.85;;;24.00;64.90;;;;;;5052941;28;20407;-82
2023/10/04 05:48:19;;;;;;;23.20;5.35;;;24.00;64.90;;;;;;5072862;28;20013;-82
2023/10/04 05:50:49;;;;;;;20.65;5.25;;;23.80;65.70;;;;;;5064985;28;20021;-81
2023/10/04 05:53:21;;;;;;;25.48;5.75;;;23.70;65.60;;;;;;5062581;28;20059;-83
2023/10/04 05:55:49;;;;;;;23.25;5.10;;;23.70;66.00;;;;;;5052298;28;20017;-83
2023/10/04 05:58:18;;;;;;;20.10;4.75;;;23.50;66.10;;;;;;5056609;28;20033;-80
2023/10/04 06:00:55;;;;;;;22.55;5.18;;;23.50;66.30;;;;;;5056987;28;20044;-82
2023/10/04 06:03:23;;;;;;;20.33;4.78;;;23.40;66.50;;;;;;5056948;28;20063;-83
2023/10/04 06:05:53;;;;;;;25.08;4.80;;;23.30;66.80;;;;;;5062906;28;20456;-81
2023/10/04 06:08:21;;;;;;;20.05;4.90;;;23.30;66.90;;;;;;5065629;28;20028;-82
2023/10/04 06:10:54;;;;;;;21.02;4.55;;;23.30;66.80;;;;;;5061542;28;20460;-81
2023/10/04 06:13:25;;;;;;;19.55;4.38;;;23.30;66.80;;;;;;5058622;28;20028;-82
2023/10/04 06:15:54;;;;;;;20.20;4.57;;;23.30;67.10;;;;;;5067069;28;20036;-82
2023/10/04 06:18:28;;;;;;;21.35;4.40;;;23.30;67.60;;;;;;5062742;28;20028;-84
2023/10/04 06:20:55;;;;;;;29.77;5.65;;;23.30;67.30;;;;;;5063941;28;20020;-82
2023/10/04 06:23:24;;;;;;;19.08;4.40;;;23.20;66.90;;;;;;5091779;28;20505;-82
2023/10/04 06:25:51;;;;;;;28.15;5.10;;;23.20;67.00;;;;;;5090024;28;20024;-83
2023/10/04 06:28:19;;;;;;;27.48;4.93;;;23.20;67.30;;;;;;5062360;28;20416;-85
2023/10/04 06:30:48;;;;;;;19.48;4.78;;;23.20;67.40;;;;;;5052118;28;20041;-81
2023/10/04 06:33:16;;;;;;;29.23;4.82;;;23.20;67.20;;;;;;5051701;28;20361;-83
2023/10/04 06:35:43;;;;;;;22.85;4.63;;;23.10;67.40;;;;;;5072792;28;20356;-83
2023/10/04 06:38:14;;;;;;;25.75;5.15;;;23.10;67.30;;;;;;5073019;28;20055;-84
2023/10/04 06:40:42;;;;;;;28.23;5.22;;;23.10;67.90;;;;;;5081581;28;20031;-82
2023/10/04 06:43:10;;;;;;;25.73;5.10;;;23.00;67.20;;;;;;5087549;28;20447;-81
2023/10/04 06:45:43;;;;;;;28.27;5.88;;;23.00;67.50;;;;;;5088994;28;20028;-84
2023/10/04 06:48:10;;;;;;;26.83;5.55;;;23.00;67.90;;;;;;5089087;28;20025;-80
2023/10/04 06:50:43;;;;;;;27.20;5.15;;;23.00;67.50;;;;;;5074380;28;20500;-83
2023/10/04 06:53:12;;;;;;;30.02;6.15;;;23.00;67.60;;;;;;5077114;28;20033;-84
2023/10/04 06:55:39;;;;;;;27.83;5.90;;;23.00;68.00;;;;;;5076258;28;20479;-83
2023/10/04 06:58:10;;;;;;;26.30;5.38;;;22.90;68.00;;;;;;5075697;28;20024;-80
2023/10/04 07:00:38;;;;;;;24.42;5.88;;;23.00;67.90;;;;;;5075737;28;20021;-81
2023/10/04 07:03:06;;;;;;;28.10;5.90;;;23.00;67.90;;;;;;5068979;28;20586;-83
2023/10/04 07:05:35;;;;;;;19.80;5.25;;;22.90;67.80;;;;;;5068627;28;20065;-84
2023/10/04 07:08:05;;;;;;;27.80;5.65;;;22.90;67.70;;;;;;5074716;28;20494;-83
2023/10/04 07:10:32;;;;;;;31.98;6.18;;;22.90;67.80;;;;;;5055203;28;20033;-84
2023/10/04 07:13:02;;;;;;;29.40;5.80;;;22.90;67.80;;;;;;5064475;28;20024;-81
2023/10/04 07:15:35;;;;;;;33.50;6.10;;;22.90;68.20;;;;;;5075063;28;20024;-83
2023/10/04 07:18:09;;;;;;;31.67;5.75;;;22.90;68.40;;;;;;5074791;28;20411;-86
2023/10/04 07:20:38;;;;;;;30.00;6.40;;;22.90;68.60;;;;;;5070124;28;20376;-83
2023/10/04 07:23:07;;;;;;;24.52;5.55;;;22.90;68.60;;;;;;5054520;28;20044;-82
2023/10/04 07:25:37;;;;;;;28.48;6.88;;;22.90;68.20;;;;;;5054380;28;20029;-83
2023/10/04 07:28:09;;;;;;;30.33;6.53;;;22.90;68.30;;;;;;5056321;28;20025;-84
2023/10/04 07:30:36;;;;;;;28.65;5.70;;;22.90;68.50;;;;;;5054710;28;20025;-85
2023/10/04 07:33:04;;;;;;;31.08;6.57;;;22.80;68.60;;;;;;5054556;28;20028;-84
2023/10/04 07:35:33;;;;;;;30.00;6.22;;;22.80;69.30;;;;;;5054600;28;20048;-83
2023/10/04 07:38:04;;;;;;;28.02;5.85;;;22.80;69.70;;;;;;5054093;28;20500;-82
2023/10/04 07:40:32;;;;;;;23.10;5.90;;;22.70;70.60;;;;;;5054253;28;20524;-82
2023/10/04 07:43:01;;;;;;;33.70;5.75;;;22.60;71.30;;;;;;5076197;28;20418;-79
2023/10/04 07:45:29;;;;;;;33.08;6.97;;;22.50;71.40;;;;;;5074182;28;20039;-83
2023/10/04 07:47:57;;;;;;;30.80;6.28;;;22.50;72.20;;;;;;5072988;28;20112;-81
2023/10/04 07:50:25;;;;;;;28.95;6.00;;;22.40;73.10;;;;;;5074231;28;20460;-79
2023/10/04 07:52:54;;;;;;;31.15;6.65;;;22.30;73.80;;;;;;5073854;28;20033;-79
2023/10/04 07:55:24;;;;;;;25.05;6.10;;;22.30;74.10;;;;;;5074211;28;20029;-80
2023/10/04 07:58:02;;;;;;;28.77;6.47;;;22.20;74.10;;;;;;5072063;28;20071;-79
2023/10/04 08:00:30;;;;;;;20.08;5.88;;;22.20;74.70;;;;;;5074168;28;20789;-80
2023/10/04 08:02:59;;;;;;;17.55;5.95;;;22.10;74.30;;;;;;5072833;28;20060;-83
2023/10/04 08:05:31;;;;;;;13.60;4.55;;;21.90;74.70;;;;;;5068814;28;20013;-83
2023/10/04 08:08:03;;;;;;;15.93;4.28;;;21.80;74.50;;;;;;5064550;28;20033;-82
2023/10/04 08:10:35;;;;;;;12.02;3.67;;;21.70;74.40;;;;;;5068647;28;20017;-81
2023/10/04 08:13:05;;;;;;;10.75;3.60;;;21.50;74.90;;;;;;5070314;28;20025;-82
2023/10/04 08:15:35;;;;;;;11.85;3.72;;;21.40;75.10;;;;;;5053851;28;20491;-82
2023/10/04 08:18:03;;;;;;;12.23;2.75;;;21.20;75.50;;;;;;5053329;28;20029;-81
2023/10/04 08:20:32;;;;;;;8.70;3.00;;;21.00;76.10;;;;;;5053233;28;20495;-82
2023/10/04 08:23:02;;;;;;;9.63;3.05;;;20.90;76.70;;;;;;5053094;28;20021;-81
2023/10/04 08:25:29;;;;;;;12.82;3.47;;;20.80;77.50;;;;;;5053011;28;20021;-80
2023/10/04 08:27:57;;;;;;;7.32;2.75;;;20.70;78.30;;;;;;5062283;28;20020;-78
2023/10/04 08:30:27;;;;;;;11.82;3.45;;;20.60;78.60;;;;;;5072283;28;20345;-79
2023/10/04 08:32:54;;;;;;;12.60;3.90;;;20.40;79.00;;;;;;5054933;28;20472;-81
2023/10/04 08:35:23;;;;;;;9.57;2.78;;;20.20;79.70;;;;;;5053193;28;20029;-80
2023/10/04 08:37:56;;;;;;;11.73;3.45;;;20.10;80.20;;;;;;5052584;28;20045;-79
2023/10/04 08:40:25;;;;;;;6.75;2.97;;;20.00;80.70;;;;;;5053350;28;20036;-81
2023/10/04 08:42:52;;;;;;;8.88;3.00;;;20.00;80.90;;;;;;5056671;28;20522;-81
2023/10/04 08:45:20;;;;;;;6.70;2.67;;;19.90;81.30;;;;;;5071700;28;20352;-82
2023/10/04 08:47:52;;;;;;;8.27;2.75;;;19.80;81.60;;;;;;5073063;28;20024;-80
2023/10/04 08:50:41;;;;;;;7.57;2.60;;;19.80;81.60;;;;;;5074001;28;20016;-82
2023/10/04 08:53:31;;;;;;;7.43;2.80;;;19.80;82.00;;;;;;5072029;28;20116;-81
2023/10/04 08:56:10;;;;;;;6.40;2.55;;;19.80;82.00;;;;;;5053135;28;20074;-81
2023/10/04 08:58:40;;;;;;;7.57;2.50;;;19.70;82.40;;;;;;5052935;28;20020;-82
2023/10/04 09:01:08;;;;;;;6.18;2.38;;;19.60;82.00;;;;;;5052599;28;20028;-80
2023/10/04 09:03:36;;;;;;;4.78;2.30;;;19.50;82.10;;;;;;5052862;28;20024;-82
2023/10/04 09:06:06;;;;;;;9.13;2.80;;;19.50;82.40;;;;;;5054596;28;20036;-83
2023/10/04 09:08:35;;;;;;;3.72;1.77;;;19.40;82.70;;;;;;5061361;28;20025;-81
2023/10/04 09:11:10;;;;;;;7.05;2.35;;;19.40;83.00;;;;;;5070374;28;20097;-82
2023/10/04 09:13:44;;;;;;;7.65;2.33;;;19.30;83.00;;;;;;5072799;28;20020;-82
2023/10/04 09:16:28;;;;;;;5.13;2.13;;;19.40;83.00;;;;;;5072841;28;20056;-82
2023/10/04 09:19:22;;;;;;;4.50;1.73;;;19.30;83.10;;;;;;5072703;28;20131;-79
2023/10/04 09:21:52;;;;;;;3.28;1.50;;;19.20;82.90;;;;;;5071025;28;20040;-79
2023/10/04 09:24:20;;;;;;;2.22;1.27;;;19.20;82.60;;;;;;5072577;28;20029;-81
2023/10/04 09:26:52;;;;;;;2.92;1.20;;;19.20;81.90;;;;;;5059105;28;20040;-81
2023/10/04 09:29:40;;;;;;;4.35;0.85;;;19.00;80.70;;;;;;5052748;28;20037;-80
2023/10/04 09:32:09;;;;;;;4.25;1.00;;;18.90;79.70;;;;;;5052489;28;20489;-83
2023/10/04 09:34:36;;;;;;;1.17;0.63;;;18.70;79.00;;;;;;5052543;28;20036;-81
2023/10/04 09:37:18;;;;;;;0.80;0.77;;;18.70;77.70;;;;;;5065617;28;20103;-83
2023/10/04 09:39:45;;;;;;;1.70;0.70;;;18.40;77.30;;;;;;5065642;28;20112;-79
2023/10/04 09:42:14;;;;;;;1.40;0.85;;;18.40;77.70;;;;;;5052570;28;20029;-79
2023/10/04 09:44:41;;;;;;;0.95;0.50;;;18.30;77.70;;;;;;5052376;28;20032;-80
2023/10/04 09:47:09;;;;;;;1.60;0.70;;;18.20;77.30;;;;;;5051966;28;20388;-82
2023/10/04 09:49:40;;;;;;;1.35;0.90;;;18.10;77.50;;;;;;5053296;28;20021;-83
2023/10/04 09:52:12;;;;;;;3.15;0.80;;;18.00;77.90;;;;;;5052368;28;20025;-83
2023/10/04 09:54:40;;;;;;;2.97;0.90;;;17.90;78.30;;;;;;5052472;28;20017;-83
2023/10/04 09:57:12;;;;;;;2.67;0.80;;;17.80;79.00;;;;;;5052093;28;20096;-82
2023/10/04 09:59:43;;;;;;;1.65;0.73;;;17.70;79.90;;;;;;5052776;28;20384;-82
2023/10/04 10:02:15;;;;;;;1.55;0.70;;;17.70;80.60;;;;;;5052409;28;20119;-84
2023/10/04 10:04:48;;;;;;;2.58;1.00;;;17.50;80.50;;;;;;5052341;28;20021;-84
2023/10/04 10:07:25;;;;;;;1.15;0.70;;;17.30;81.40;;;;;;5052234;28;20100;-79
2023/10/04 10:10:11;;;;;;;1.48;0.63;;;17.20;81.40;;;;;;5052329;28;20025;-77
2023/10/04 10:12:40;;;;;;;1.63;0.50;;;17.20;81.90;;;;;;5058527;28;20056;-77
2023/10/04 10:15:07;;;;;;;4.50;0.80;;;17.10;82.20;;;;;;5072371;28;20035;-84
2023/10/04 10:17:35;;;;;;;2.40;0.80;;;17.00;81.80;;;;;;5069290;28;20039;-84
2023/10/04 10:20:04;;;;;;;2.28;1.08;;;16.90;81.90;;;;;;5075386;28;20017;-82
2023/10/04 10:22:32;;;;;;;1.10;0.70;;;16.80;82.00;;;;;;5075662;28;20046;-78
2023/10/04 10:24:59;;;;;;;3.17;0.70;;;16.70;82.10;;;;;;5075668;28;20044;-77
2023/10/04 10:27:31;;;;;;;0.50;0.50;;;16.70;82.40;;;;;;5075892;28;20539;-82
2023/10/04 10:30:09;;;;;;;1.48;0.70;;;16.70;82.20;;;;;;5068845;28;20032;-78
2023/10/04 10:32:48;;;;;;;1.25;0.50;;;16.70;82.10;;;;;;5055477;28;20055;-83
2023/10/04 10:35:35;;;;;;;0.93;0.63;;;16.60;82.40;;;;;;5075830;28;20021;-76
2023/10/04 10:38:44;;;;;;;2.28;0.50;;;16.50;82.30;;;;;;5084306;28;20093;-78
2023/10/04 10:41:34;;;;;;;4.43;0.55;;;16.50;82.80;;;;;;5056281;28;20052;-79
2023/10/04 10:44:24;;;;;;;3.42;0.50;;;16.40;82.60;;;;;;5065825;28;20032;-76
2023/10/04 10:47:07;;;;;;;2.15;0.43;;;16.50;82.20;;;;;;5066259;28;20021;-82
2023/10/04 10:49:40;;;;;;;2.05;0.63;;;16.40;83.10;;;;;;5073974;28;20024;-75
2023/10/04 10:52:28;;;;;;;1.45;0.55;;;16.40;83.10;;;;;;5071836;28;20020;-78
2023/10/04 10:54:57;;;;;;;1.77;0.57;;;16.20;82.60;;;;;;5079363;28;20433;-75
2023/10/04 10:57:29;;;;;;;0.90;0.40;;;16.00;82.80;;;;;;5082106;28;20039;-74
2023/10/04 11:00:01;;;;;;;1.27;0.50;;;15.90;83.00;;;;;;5068028;28;20035;-74
2023/10/04 11:02:29;;;;;;;1.08;0.35;;;15.80;83.50;;;;;;5073228;28;20029;-75
2023/10/04 11:04:57;;;;;;;1.98;0.52;;;15.70;84.20;;;;;;5074185;28;20384;-77
2023/10/04 11:07:26;;;;;;;2.00;0.50;;;15.70;84.60;;;;;;5095370;28;20016;-74
2023/10/04 11:09:58;;;;;;;0.75;0.38;;;15.60;83.90;;;;;;5085800;28;20020;-76
2023/10/04 11:12:26;;;;;;;3.00;0.60;;;15.50;84.50;;;;;;5055017;28;20017;-74
2023/10/04 11:14:54;;;;;;;2.40;0.60;;;15.60;85.20;;;;;;5054633;28;20021;-75
2023/10/04 11:17:21;;;;;;;2.53;0.60;;;15.50;84.80;;;;;;5073389;28;20051;-74
2023/10/04 11:19:52;;;;;;;2.92;0.50;;;15.50;85.20;;;;;;5087644;28;20474;-75
2023/10/04 11:22:19;;;;;;;7.18;0.70;;;15.40;85.00;;;;;;5093978;28;20127;-74
2023/10/04 11:24:47;;;;;;;1.50;0.40;;;15.30;85.40;;;;;;5078438;28;20102;-74
2023/10/04 11:27:21;;;;;;;2.75;0.60;;;15.40;85.30;;;;;;5078955;28;20046;-75
2023/10/04 11:29:52;;;;;;;1.70;0.63;;;15.50;86.70;;;;;;5073981;28;20025;-75
2023/10/04 11:32:21;;;;;;;1.02;0.57;;;15.70;86.50;;;;;;5073414;28;20601;-76
2023/10/04 11:34:49;;;;;;;0.38;0.38;;;15.60;85.80;;;;;;5071500;28;20379;-74
2023/10/04 11:37:17;;;;;;;0.75;0.50;;;15.60;85.60;;;;;;5073484;28;20058;-74
2023/10/04 11:39:45;;;;;;;1.58;0.60;;;15.60;86.90;;;;;;5061734;28;20075;-74
2023/10/04 11:42:18;;;;;;;3.13;0.85;;;15.70;85.90;;;;;;5054235;28;20079;-76
2023/10/04 11:44:45;;;;;;;1.30;0.70;;;15.60;85.80;;;;;;5061774;28;20017;-74
2023/10/04 11:47:15;;;;;;;0.50;0.50;;;15.60;86.00;;;;;;5073101;28;20412;-84
2023/10/04 11:50:07;;;;;;;4.85;0.75;;;15.60;85.60;;;;;;5073432;28;20475;-80
2023/10/04 11:52:36;;;;;;;0.50;0.50;;;15.30;85.10;;;;;;5054809;28;20101;-75
2023/10/04 11:55:04;;;;;;;0.32;0.30;;;15.20;85.60;;;;;;5054998;28;20051;-85
2023/10/04 11:57:37;;;;;;;1.13;0.70;;;15.20;85.70;;;;;;5057427;28;20115;-83
2023/10/04 12:00:26;;;;;;;0.65;0.40;;;15.20;85.50;;;;;;5065138;28;20020;-81
2023/10/04 12:02:53;;;;;;;0.50;0.30;;;15.00;85.30;;;;;;5067346;28;20042;-74
2023/10/04 12:05:21;;;;;;;1.10;0.25;;;14.80;84.60;;;;;;5070767;28;20029;-74
2023/10/04 12:07:48;;;;;;;1.63;0.60;;;14.80;84.30;;;;;;5074331;28;20020;-84
2023/10/04 12:10:16;;;;;;;0.95;0.80;;;14.70;84.80;;;;;;5073644;28;20503;-76
2023/10/04 12:12:43;;;;;;;1.48;0.80;;;14.70;84.00;;;;;;5073767;28;20509;-75
2023/10/04 12:15:11;;;;;;;0.45;0.43;;;14.70;84.30;;;;;;5072144;28;20056;-75
2023/10/04 12:17:39;;;;;;;0.25;0.22;;;14.70;84.30;;;;;;5073521;28;20119;-74
2023/10/04 12:20:11;;;;;;;0.73;0.70;;;14.70;84.50;;;;;;5060249;28;20036;-79
2023/10/04 12:22:39;;;;;;;0.43;0.43;;;14.70;84.70;;;;;;5064399;28;20024;-85
2023/10/04 12:25:07;;;;;;;0.82;0.47;;;14.70;83.80;;;;;;5073848;28;20028;-74
2023/10/04 12:27:34;;;;;;;1.48;0.30;;;14.70;83.80;;;;;;5073392;28;20048;-77
2023/10/04 12:30:05;;;;;;;1.38;0.40;;;14.50;83.70;;;;;;5072073;28;20102;-75
2023/10/04 12:32:32;;;;;;;0.98;0.35;;;14.60;84.40;;;;;;5071695;28;20499;-79
2023/10/04 12:34:59;;;;;;;0.35;0.35;;;14.50;83.80;;;;;;5073157;28;20035;-75
2023/10/04 12:37:28;;;;;;;1.98;0.47;;;14.50;83.70;;;;;;5071790;28;20058;-77
2023/10/04 12:39:56;;;;;;;0.30;0.30;;;14.40;83.60;;;;;;5085284;28;20072;-74
2023/10/04 12:42:23;;;;;;;0.45;0.40;;;14.40;83.40;;;;;;5072321;28;20491;-75
2023/10/04 12:44:53;;;;;;;2.17;0.63;;;14.40;82.80;;;;;;5066502;28;20036;-74
2023/10/04 12:47:20;;;;;;;2.30;0.80;;;14.40;83.00;;;;;;5069254;28;20020;-76
2023/10/04 12:49:48;;;;;;;2.47;0.60;;;14.40;82.80;;;;;;5072873;28;20059;-74
2023/10/04 12:52:15;;;;;;;2.42;0.50;;;14.30;82.80;;;;;;5078305;28;20028;-84
2023/10/04 12:54:42;;;;;;;0.47;0.47;;;14.20;82.30;;;;;;5067509;28;20028;-76
2023/10/04 12:57:11;;;;;;;0.40;0.40;;;14.20;82.60;;;;;;5068920;28;20036;-75
2023/10/04 12:59:39;;;;;;;1.15;0.50;;;14.20;82.50;;;;;;5068618;28;20469;-74
2023/10/04 13:02:06;;;;;;;0.68;0.35;;;14.20;82.20;;;;;;5064931;28;20032;-74